Hovedside
METAR-TAF:

METAR-TAF

Lufthavner :

Darwin, Australia

breddegrad: 12-24S, lengdegrad: 130-52E, høyde over havet: 31 m

Gjeldene værobservasjon

Denne rapporten ble laget for 32 minutter siden, klokken 06:30 UTC
Vind 7 kt fra Øst-sørøst
Temperatur 33°C
Luftfuktighet 28%
Trykk 1007 hPa
Sikt 10 km eller mer
ingen skyer under 1500 m og ingen bygeskyer

METAR: YPDN 250630Z 12007KT CAVOK 33/12 Q1007 NOSIG

Tid: 16:32 (07:02 UTC)

Varsel

Denne rapporten ble laget for 1 time og 53 minutter siden, klokken 05:09 UTC
Varsel gyldig fra 25. klokken 06 UTC til 26. klokken 12 UTC
Vind 12 kt fra Øst
Sikt 10 km eller mer
ingen skyer under 1500 m og ingen bygeskyer
Fra 25. klokken 1000 UTC
Vind 6 kt fra Nordøst
Sikt 10 km eller mer
ingen skyer under 1500 m og ingen bygeskyer
Fra 25. klokken 2300 UTC
Vind 10 kt fra Øst
Sikt 10 km eller mer
ingen skyer under 1500 m og ingen bygeskyer

TAF: YPDN 250509Z 2506/2612 10012KT CAVOK FM251000 04006KT CAVOK FM252300 10010KT CAVOK

Værobservasjoner og værvarsel for over 4000 flyplasser (METAR- og TAF-rapporter).

Tilgjengelige stasjoner er representert av de røde og gule prikkene på kartet.

Hold musepekeren over prikken for å se navnet på stasjonen.

Klikk så for å se værobservasjoner og -varsler.

For å forandre kartet kan du klikke på den grønne knappen med svart kryss for å zoome inn, på den grønne knappen med strek for å zoome ut, eller på de grønne pilene for å se tilstøtende kart.


METAR-TAF: